createdAt,value
2017-10-03T00:01:40.706Z,98737.59
2017-10-03T00:04:08.232Z,98724.94
2017-10-03T00:06:35.729Z,98713.45
2017-10-03T00:09:03.240Z,98700.77
2017-10-03T00:11:30.739Z,98695.98
2017-10-03T00:13:59.160Z,98697.70
2017-10-03T00:16:26.650Z,98699.78
2017-10-03T00:18:54.144Z,98709.43
2017-10-03T00:21:21.608Z,98718.38
2017-10-03T00:23:49.118Z,98703.09
2017-10-03T00:26:16.622Z,98712.59
2017-10-03T00:28:44.072Z,98709.83
2017-10-03T00:31:11.559Z,98709.19
2017-10-03T00:33:39.020Z,98712.84
2017-10-03T00:36:06.499Z,98713.91
2017-10-03T00:38:33.969Z,98718.64
2017-10-03T00:41:01.459Z,98716.72
2017-10-03T00:43:28.946Z,98720.56
2017-10-03T00:45:56.437Z,98715.85
2017-10-03T00:48:23.889Z,98708.70
2017-10-03T00:50:51.392Z,98690.59
2017-10-03T00:53:18.885Z,98682.57
2017-10-03T00:55:46.517Z,98684.87
2017-10-03T00:58:14.016Z,98686.14
2017-10-03T01:00:41.485Z,98679.75
2017-10-03T01:03:08.983Z,98682.08
2017-10-03T01:05:36.477Z,98677.55
2017-10-03T01:08:03.990Z,98695.05
2017-10-03T01:10:31.457Z,98691.20
2017-10-03T01:12:59.001Z,98690.72
2017-10-03T01:15:26.500Z,98701.45
2017-10-03T01:17:53.995Z,98711.61
2017-10-03T01:20:21.559Z,98711.28
2017-10-03T01:22:49.072Z,98714.72
2017-10-03T01:25:16.531Z,98720.06
2017-10-03T01:27:44.052Z,98729.52
2017-10-03T01:30:11.541Z,98738.48
2017-10-03T01:32:39.067Z,98734.31
2017-10-03T01:35:06.648Z,98753.30
2017-10-03T01:37:37.856Z,98753.53
2017-10-03T01:40:05.500Z,98754.12
2017-10-03T01:42:32.964Z,98739.80
2017-10-03T01:45:00.498Z,98739.34
2017-10-03T01:47:27.988Z,98758.64
2017-10-03T01:49:55.514Z,98747.22
2017-10-03T01:52:23.013Z,98752.44
2017-10-03T01:54:50.889Z,98756.58
2017-10-03T01:57:18.373Z,98743.56
2017-10-03T01:59:45.882Z,98749.54
2017-10-03T02:02:13.376Z,98762.36
2017-10-03T02:04:40.846Z,98767.28
2017-10-03T02:07:08.309Z,98749.91
2017-10-03T02:09:35.982Z,98745.25
2017-10-03T02:12:03.457Z,98759.17
2017-10-03T02:14:30.925Z,98768.77
2017-10-03T02:16:58.427Z,98770.94
2017-10-03T02:19:25.916Z,98776.31
2017-10-03T02:21:53.423Z,98783.83
2017-10-03T02:24:21.197Z,98763.06
2017-10-03T02:26:48.729Z,98774.98
2017-10-03T02:29:16.212Z,98795.80
2017-10-03T02:31:43.708Z,98782.16
2017-10-03T02:34:11.153Z,98767.95
2017-10-03T02:36:38.678Z,98759.22
2017-10-03T02:39:06.150Z,98763.03
2017-10-03T02:41:33.652Z,98765.52
2017-10-03T02:44:01.130Z,98763.16
2017-10-03T02:46:28.631Z,98745.12
2017-10-03T02:48:56.188Z,98751.70
2017-10-03T02:51:23.658Z,98759.96
2017-10-03T02:53:51.156Z,98756.84
2017-10-03T02:56:18.612Z,98772.24
2017-10-03T02:58:46.109Z,98777.39
2017-10-03T03:01:13.569Z,98748.77
2017-10-03T03:03:41.062Z,98744.63
2017-10-03T03:06:08.584Z,98732.97
2017-10-03T03:08:36.045Z,98730.36
2017-10-03T03:11:03.541Z,98732.81
2017-10-03T03:13:31.062Z,98751.84
2017-10-03T03:15:58.602Z,98757.92
2017-10-03T03:18:26.124Z,98761.20
2017-10-03T03:20:53.629Z,98760.97
2017-10-03T03:23:25.478Z,98767.62
2017-10-03T03:25:53.001Z,98781.96
2017-10-03T03:28:20.559Z,98800.80
2017-10-03T03:30:48.074Z,98800.89
2017-10-03T03:33:15.590Z,98803.45
2017-10-03T03:35:43.101Z,98799.99
2017-10-03T03:44:00.554Z,98752.03
2017-10-03T03:46:28.119Z,98752.09
2017-10-03T03:48:55.585Z,98745.89
2017-10-03T03:51:23.066Z,98736.46
2017-10-03T03:53:50.513Z,98711.45
2017-10-03T03:56:18.020Z,98703.33
2017-10-03T03:58:45.506Z,98704.37
2017-10-03T04:01:13.013Z,98698.78
2017-10-03T04:03:40.517Z,98730.59
2017-10-03T04:06:08.028Z,98701.58
2017-10-03T04:08:35.525Z,98710.41
2017-10-03T04:11:02.984Z,98717.73
2017-10-03T04:13:30.489Z,98728.92
2017-10-03T04:15:57.946Z,98745.46
2017-10-03T04:18:25.444Z,98745.09
2017-10-03T04:20:52.912Z,98742.27
2017-10-03T04:23:20.395Z,98752.20
2017-10-03T04:25:47.847Z,98760.24
2017-10-03T04:28:15.332Z,98749.84
2017-10-03T04:30:42.821Z,98749.22
2017-10-03T04:33:10.321Z,98757.55
2017-10-03T04:35:37.782Z,98767.78
2017-10-03T04:38:05.277Z,98766.05
2017-10-03T04:40:32.787Z,98777.78
2017-10-03T04:43:00.346Z,98785.62
2017-10-03T04:45:28.421Z,98787.88
2017-10-03T04:47:55.948Z,98799.46
2017-10-03T04:50:23.469Z,98810.77
2017-10-03T04:52:50.965Z,98803.44
2017-10-03T04:55:18.549Z,98809.33
2017-10-03T04:57:46.851Z,98824.53
2017-10-03T05:00:14.339Z,98820.41
2017-10-03T05:02:41.785Z,98833.86
2017-10-03T05:05:09.276Z,98845.97
2017-10-03T05:07:36.756Z,98856.92
2017-10-03T05:10:04.258Z,98864.67
2017-10-03T05:12:31.708Z,98886.29
2017-10-03T05:14:59.209Z,98891.66
2017-10-03T05:17:26.726Z,98893.95
2017-10-03T05:19:54.193Z,98898.70
2017-10-03T05:22:21.690Z,98893.59
2017-10-03T05:24:49.210Z,98889.98
2017-10-03T05:27:16.692Z,98889.78
2017-10-03T05:29:44.162Z,98881.54
2017-10-03T05:32:11.649Z,98894.55
2017-10-03T05:34:39.179Z,98893.03
2017-10-03T05:37:06.652Z,98897.92
2017-10-03T05:39:34.174Z,98906.71
2017-10-03T05:42:01.673Z,98911.81
2017-10-03T05:44:29.179Z,98898.38
2017-10-03T05:46:56.673Z,98907.03
2017-10-03T05:49:24.205Z,98907.17
2017-10-03T05:51:51.685Z,98916.89
2017-10-03T05:54:19.182Z,98912.16
2017-10-03T05:56:46.688Z,98912.42
2017-10-03T05:59:14.173Z,98920.38
2017-10-03T06:01:41.659Z,98929.99
2017-10-03T06:04:09.163Z,98930.52
2017-10-03T06:06:38.330Z,98971.77
2017-10-03T06:09:12.607Z,98945.48
2017-10-03T06:11:40.246Z,98981.61
2017-10-03T06:14:07.773Z,98959.13
2017-10-03T06:16:35.295Z,98974.75
2017-10-03T06:19:02.806Z,98983.52
2017-10-03T06:21:30.330Z,98990.72
2017-10-03T06:23:57.870Z,98986.43
2017-10-03T06:26:25.626Z,99000.59
2017-10-03T06:28:53.107Z,99001.23
2017-10-03T06:31:20.615Z,99007.03
2017-10-03T06:33:48.069Z,99011.63
2017-10-03T06:36:18.754Z,99023.73
2017-10-03T06:38:47.073Z,99025.77
2017-10-03T06:41:16.179Z,99032.59
2017-10-03T06:43:44.818Z,99033.28
2017-10-03T06:46:13.329Z,99026.53
2017-10-03T06:48:40.834Z,99032.43
2017-10-03T06:51:08.331Z,99039.44
2017-10-03T06:53:36.790Z,99040.39
2017-10-03T06:56:04.294Z,99048.63
2017-10-03T06:58:31.814Z,99055.11
2017-10-03T07:00:59.296Z,99056.95
2017-10-03T07:03:26.795Z,99061.66
2017-10-03T07:05:54.281Z,99070.41
2017-10-03T07:08:21.782Z,99072.84
2017-10-03T07:10:49.292Z,99083.77
2017-10-03T07:13:16.795Z,99086.63
2017-10-03T07:15:44.253Z,99091.45
2017-10-03T07:18:11.929Z,99094.23
2017-10-03T07:20:39.392Z,99091.03
2017-10-03T07:23:06.909Z,99094.19
2017-10-03T07:25:34.392Z,99107.61
2017-10-03T07:28:01.866Z,99115.19
2017-10-03T07:30:29.396Z,99124.08
2017-10-03T07:32:56.902Z,99123.48
2017-10-03T07:35:24.424Z,99130.91
2017-10-03T07:37:51.916Z,99134.92
2017-10-03T07:40:19.437Z,99146.16
2017-10-03T07:42:46.899Z,99144.34
2017-10-03T07:45:14.417Z,99148.61
2017-10-03T07:47:41.904Z,99146.31
2017-10-03T07:50:09.400Z,99165.20
2017-10-03T07:52:36.881Z,99161.42
2017-10-03T07:55:04.525Z,99159.20
2017-10-03T07:57:32.021Z,99170.72
2017-10-03T08:00:09.643Z,99179.30
2017-10-03T08:02:37.179Z,99189.78
2017-10-03T08:08:07.129Z,99201.36
2017-10-03T08:10:34.600Z,99203.22
2017-10-03T08:13:02.101Z,99207.11
2017-10-03T08:15:29.613Z,99214.87
2017-10-03T08:17:57.121Z,99187.30
2017-10-03T08:20:24.599Z,99206.69
2017-10-03T08:22:53.105Z,99198.56
2017-10-03T08:25:20.571Z,99103.40
2017-10-03T08:27:48.059Z,99218.50
2017-10-03T08:30:15.549Z,99205.08
2017-10-03T08:32:43.055Z,99215.13
2017-10-03T08:35:10.550Z,99216.72
2017-10-03T08:37:38.021Z,99226.66
2017-10-03T08:40:05.525Z,99234.27
2017-10-03T08:42:33.016Z,99239.61
2017-10-03T08:45:04.136Z,99244.82
2017-10-03T08:47:36.395Z,99251.47
2017-10-03T08:50:04.216Z,99261.27
2017-10-03T08:52:31.677Z,99271.71
2017-10-03T08:54:59.137Z,99280.35
2017-10-03T08:57:27.034Z,99285.54
2017-10-03T08:59:54.577Z,99277.09
2017-10-03T09:02:22.073Z,99276.39
2017-10-03T09:04:49.807Z,99272.55
2017-10-03T09:07:17.298Z,99281.08
2017-10-03T09:09:44.779Z,99288.34
2017-10-03T09:12:12.252Z,99291.13
2017-10-03T09:14:39.714Z,99300.95
2017-10-03T09:17:07.217Z,99307.92
2017-10-03T09:19:34.743Z,99304.78
2017-10-03T09:22:02.242Z,99310.05
2017-10-03T09:24:29.741Z,99303.80
2017-10-03T09:26:57.369Z,99322.84
2017-10-03T09:29:24.872Z,99324.91
2017-10-03T09:31:52.356Z,99297.86
2017-10-03T09:34:19.869Z,99335.41
2017-10-03T09:36:47.317Z,99342.01
2017-10-03T09:39:14.840Z,99344.50
2017-10-03T09:41:42.317Z,99350.14
2017-10-03T09:44:10.030Z,99355.63
2017-10-03T09:46:37.534Z,99344.66
2017-10-03T09:49:05.004Z,99347.11
2017-10-03T09:51:32.514Z,99345.53
2017-10-03T09:54:00.031Z,99346.28
2017-10-03T09:56:27.548Z,99348.85
2017-10-03T09:58:55.018Z,99354.30
2017-10-03T10:01:22.505Z,99358.98
2017-10-03T10:03:50.033Z,99358.36
2017-10-03T10:06:17.753Z,99346.61
2017-10-03T10:08:45.255Z,99356.91
2017-10-03T10:11:12.796Z,99357.88
2017-10-03T10:13:40.741Z,99354.23
2017-10-03T10:16:08.234Z,99375.44
2017-10-03T10:18:35.710Z,99369.94
2017-10-03T10:21:03.217Z,99374.52
2017-10-03T10:23:30.737Z,99386.03
2017-10-03T10:25:58.187Z,99393.39
2017-10-03T10:28:25.689Z,99396.85
2017-10-03T10:30:53.156Z,99395.55
2017-10-03T10:33:20.652Z,99393.45
2017-10-03T10:35:48.119Z,99395.16
2017-10-03T10:38:15.648Z,99398.76
2017-10-03T10:40:43.100Z,99406.14
2017-10-03T10:43:10.594Z,99409.92
2017-10-03T10:45:38.093Z,99411.89
2017-10-03T10:48:05.579Z,99412.11
2017-10-03T10:50:33.042Z,99411.28
2017-10-03T10:53:00.544Z,99427.63
2017-10-03T10:55:28.039Z,99415.04
2017-10-03T10:57:55.520Z,99417.55
2017-10-03T11:00:23.013Z,99418.55
2017-10-03T11:02:50.486Z,99421.59
2017-10-03T11:05:18.069Z,99419.95
2017-10-03T11:07:45.513Z,99430.42
2017-10-03T11:10:13.048Z,99434.36
2017-10-03T11:12:40.519Z,99437.00
2017-10-03T11:15:07.988Z,99437.56
2017-10-03T11:17:35.523Z,99448.36
2017-10-03T11:20:03.107Z,99448.87
2017-10-03T11:22:30.619Z,99435.80
2017-10-03T11:24:58.075Z,99442.09
2017-10-03T11:27:25.570Z,99442.54
2017-10-03T11:29:53.066Z,99445.80
2017-10-03T11:32:20.574Z,99450.44
2017-10-03T11:34:48.049Z,99454.86
2017-10-03T11:37:15.525Z,99456.89
2017-10-03T11:39:43.030Z,99453.43
2017-10-03T11:42:10.529Z,99455.69
2017-10-03T11:44:37.999Z,99463.66
2017-10-03T11:47:06.500Z,99457.64
2017-10-03T11:49:33.975Z,99456.81
2017-10-03T11:52:01.449Z,99461.81
2017-10-03T11:54:28.970Z,99470.38
2017-10-03T11:56:56.434Z,99463.88
2017-10-03T11:59:23.955Z,99472.00
2017-10-03T12:01:53.559Z,99461.91
2017-10-03T12:04:21.089Z,99473.34
2017-10-03T12:06:48.595Z,99474.57
2017-10-03T12:09:16.177Z,99480.78
2017-10-03T12:11:43.703Z,99476.91
2017-10-03T12:14:11.212Z,99467.69
2017-10-03T12:16:38.726Z,99481.09
2017-10-03T12:19:24.198Z,99482.69
2017-10-03T12:21:52.407Z,99474.81
2017-10-03T12:24:19.887Z,99481.82
2017-10-03T12:26:47.629Z,99468.70
2017-10-03T12:29:15.138Z,99479.01
2017-10-03T12:31:42.647Z,99476.84
2017-10-03T12:34:10.179Z,99482.87
2017-10-03T12:36:37.659Z,99477.30
2017-10-03T12:39:05.240Z,99474.48
2017-10-03T12:41:32.706Z,99481.41
2017-10-03T12:44:00.427Z,99483.09
2017-10-03T12:46:27.930Z,99480.84
2017-10-03T12:48:55.463Z,99489.13
2017-10-03T12:51:22.985Z,99471.05
2017-10-03T12:53:51.284Z,99481.95
2017-10-03T12:56:18.777Z,99497.98
2017-10-03T12:58:46.270Z,99490.77
2017-10-03T13:01:13.758Z,99487.11
2017-10-03T13:03:41.283Z,99485.20
2017-10-03T13:06:08.938Z,99498.73
2017-10-03T13:08:36.419Z,99496.27
2017-10-03T13:11:03.891Z,99492.38
2017-10-03T13:13:31.414Z,99489.52
2017-10-03T13:15:58.989Z,99483.70
2017-10-03T13:18:26.535Z,99487.72
2017-10-03T13:20:54.005Z,99489.16
2017-10-03T13:23:21.540Z,99486.86
2017-10-03T13:25:49.018Z,99483.09
2017-10-03T13:28:16.586Z,99485.01
2017-10-03T13:30:44.041Z,99493.83
2017-10-03T13:33:11.543Z,99486.54
2017-10-03T13:35:39.028Z,99489.52
2017-10-03T13:38:06.536Z,99481.30
2017-10-03T13:40:34.069Z,99493.05
2017-10-03T13:43:01.557Z,99494.38
2017-10-03T13:45:29.072Z,99493.88
2017-10-03T13:47:56.564Z,99504.09
2017-10-03T13:50:24.068Z,99501.62
2017-10-03T13:52:51.553Z,99497.15
2017-10-03T13:55:19.126Z,99508.56
2017-10-03T13:57:46.644Z,99509.56
2017-10-03T14:00:14.182Z,99516.70
2017-10-03T14:02:41.689Z,99515.88
2017-10-03T14:05:09.156Z,99516.14
2017-10-03T14:07:36.670Z,99514.26
2017-10-03T14:10:04.739Z,99519.38
2017-10-03T14:12:32.262Z,99521.68
2017-10-03T14:14:59.738Z,99516.77
2017-10-03T14:17:27.290Z,99521.48
2017-10-03T14:19:54.766Z,99511.67
2017-10-03T14:22:23.224Z,99512.70
2017-10-03T14:24:51.584Z,99514.67
2017-10-03T14:27:19.072Z,99513.91
2017-10-03T14:29:46.579Z,99515.83
2017-10-03T14:32:14.039Z,99516.66
2017-10-03T14:34:41.583Z,99518.55
2017-10-03T14:37:09.060Z,99522.02
2017-10-03T14:39:36.615Z,99534.58
2017-10-03T14:42:05.114Z,99527.58
2017-10-03T14:44:32.685Z,99534.89
2017-10-03T14:47:00.179Z,99538.64
2017-10-03T14:49:28.598Z,99535.50
2017-10-03T14:51:56.086Z,99535.94
2017-10-03T14:54:23.578Z,99534.97
2017-10-03T14:56:51.165Z,99507.30
2017-10-03T14:59:18.668Z,99548.69
2017-10-03T15:01:46.193Z,99552.63
2017-10-03T15:04:13.720Z,99553.42
2017-10-03T15:06:42.103Z,99571.02
2017-10-03T15:09:09.596Z,99562.78
2017-10-03T15:11:37.128Z,99571.56
2017-10-03T15:14:05.142Z,99577.34
2017-10-03T15:16:32.663Z,99581.25
2017-10-03T15:19:00.167Z,99581.95
2017-10-03T15:21:27.704Z,99566.59
2017-10-03T15:23:55.247Z,99596.45
2017-10-03T15:26:22.801Z,99593.00
2017-10-03T15:28:51.187Z,99597.25
2017-10-03T15:31:18.701Z,99591.53
2017-10-03T15:33:46.771Z,99587.79
2017-10-03T15:36:14.277Z,99584.75
2017-10-03T15:38:41.812Z,99576.84
2017-10-03T15:41:09.330Z,99582.02
2017-10-03T15:43:36.834Z,99587.78
2017-10-03T15:46:04.354Z,99594.21
2017-10-03T15:48:31.899Z,99597.59
2017-10-03T15:50:59.420Z,99598.07
2017-10-03T15:53:27.887Z,99601.25
2017-10-03T15:55:55.387Z,99617.42
2017-10-03T15:58:22.907Z,99621.98
2017-10-03T16:00:50.502Z,99612.59
2017-10-03T16:03:18.040Z,99615.30
2017-10-03T16:05:46.180Z,99612.14
2017-10-03T16:08:13.683Z,99626.38
2017-10-03T16:10:41.246Z,99643.54
2017-10-03T16:13:09.702Z,99629.95
2017-10-03T16:15:37.265Z,99639.27
2017-10-03T16:18:04.755Z,99639.52
2017-10-03T16:20:32.289Z,99638.88
2017-10-03T16:23:00.627Z,99644.38
2017-10-03T16:25:28.546Z,99640.66
2017-10-03T16:27:56.111Z,99653.80
2017-10-03T16:30:23.632Z,99647.72
2017-10-03T16:32:51.821Z,99660.48
2017-10-03T16:35:19.314Z,99650.45
2017-10-03T16:37:46.860Z,99656.55
2017-10-03T16:40:16.017Z,99665.23
2017-10-03T16:42:44.462Z,99664.48
2017-10-03T16:45:12.073Z,99667.19
2017-10-03T16:47:40.314Z,99665.90
2017-10-03T16:50:07.830Z,99667.92
2017-10-03T16:52:36.731Z,99660.15
2017-10-03T16:55:04.256Z,99669.00
2017-10-03T16:57:31.753Z,99671.69
2017-10-03T17:00:00.027Z,99670.05
2017-10-03T17:02:27.532Z,99677.22
2017-10-03T17:04:55.393Z,99676.63
2017-10-03T17:07:24.294Z,99670.11
2017-10-03T17:09:51.782Z,99672.91
2017-10-03T17:12:19.311Z,99678.30
2017-10-03T17:14:47.582Z,99678.75
2017-10-03T17:17:15.104Z,99682.28
2017-10-03T17:19:42.677Z,99679.79
2017-10-03T17:22:12.294Z,99682.27
2017-10-03T17:24:40.020Z,99690.66
2017-10-03T17:27:08.110Z,99699.28
2017-10-03T17:29:35.634Z,99703.56
2017-10-03T17:32:03.438Z,99698.83
2017-10-03T17:34:31.842Z,99702.84
2017-10-03T17:36:59.336Z,99706.73
2017-10-03T17:39:26.899Z,99712.81
2017-10-03T17:41:54.739Z,99709.05
2017-10-03T17:44:22.777Z,99710.61
2017-10-03T17:46:51.853Z,99714.77
2017-10-03T17:49:19.714Z,99721.70
2017-10-03T17:51:47.243Z,99729.20
2017-10-03T17:54:14.834Z,99727.89
2017-10-03T17:56:42.342Z,99730.51
2017-10-03T17:59:10.514Z,99726.07
2017-10-03T18:01:38.044Z,99734.50
2017-10-03T18:04:05.714Z,99740.41
2017-10-03T18:06:34.156Z,99742.96
2017-10-03T18:09:02.348Z,99741.55
2017-10-03T18:11:30.911Z,99735.34
2017-10-03T18:13:58.513Z,99749.02
2017-10-03T18:16:26.099Z,99741.59
2017-10-03T18:18:54.494Z,99746.12
2017-10-03T18:21:22.304Z,99753.88
2017-10-03T18:23:51.124Z,99754.80
2017-10-03T18:26:20.010Z,99764.63
2017-10-03T18:28:47.550Z,99771.95
2017-10-03T18:31:15.924Z,99774.73
2017-10-03T18:33:47.004Z,99779.28
2017-10-03T18:36:14.903Z,99774.48
2017-10-03T18:38:42.472Z,99783.26
2017-10-03T18:41:10.875Z,99780.08
2017-10-03T18:43:39.276Z,99769.17
2017-10-03T18:46:06.790Z,99784.19
2017-10-03T18:48:35.683Z,99786.97
2017-10-03T18:51:04.691Z,99782.71
2017-10-03T18:53:33.951Z,99790.94
2017-10-03T18:56:01.566Z,99795.05
2017-10-03T18:58:29.505Z,99798.62
2017-10-03T19:00:59.197Z,99799.69
2017-10-03T19:03:27.300Z,99804.34
2017-10-03T19:05:55.410Z,99801.81
2017-10-03T19:08:22.961Z,99804.06
2017-10-03T19:10:52.315Z,99805.94
2017-10-03T19:13:19.989Z,99805.11
2017-10-03T19:15:48.574Z,99824.34
2017-10-03T19:18:17.093Z,99812.66
2017-10-03T19:20:44.694Z,99818.64
2017-10-03T19:23:12.236Z,99787.33
2017-10-03T19:25:40.546Z,99838.45
2017-10-03T19:28:09.127Z,99836.82
2017-10-03T19:30:37.143Z,99841.75
2017-10-03T19:33:07.658Z,99845.97
2017-10-03T19:35:37.930Z,99849.38
2017-10-03T19:38:05.528Z,99853.72
2017-10-03T19:40:34.268Z,99852.59
2017-10-03T19:43:01.791Z,99859.78
2017-10-03T19:45:29.705Z,99863.17
2017-10-03T19:47:59.056Z,99865.31
2017-10-03T19:50:27.163Z,99864.52
2017-10-03T19:52:55.202Z,99870.20
2017-10-03T19:55:23.011Z,99871.34
2017-10-03T19:57:50.867Z,99872.80
2017-10-03T20:00:18.786Z,99881.96
2017-10-03T20:02:46.298Z,99886.45
2017-10-03T20:05:14.188Z,99881.88
2017-10-03T20:07:45.168Z,99884.43
2017-10-03T20:10:12.771Z,99885.36
2017-10-03T20:12:43.309Z,99881.62
2017-10-03T20:15:10.936Z,99888.32
2017-10-03T20:17:40.834Z,99895.12
2017-10-03T20:20:09.423Z,99890.78
2017-10-03T20:22:38.219Z,99889.23
2017-10-03T20:25:06.738Z,99897.13
2017-10-03T20:27:35.053Z,99911.34
2017-10-03T20:30:03.149Z,99911.26
2017-10-03T20:32:30.690Z,99908.55
2017-10-03T20:34:58.283Z,99914.14
2017-10-03T20:37:25.867Z,99912.81
2017-10-03T20:39:53.482Z,99911.46
2017-10-03T20:42:21.904Z,99907.39
2017-10-03T20:44:49.596Z,99911.71
2017-10-03T20:47:17.163Z,99915.77
2017-10-03T20:49:45.582Z,99918.33
2017-10-03T20:52:14.530Z,99907.73
2017-10-03T20:54:42.092Z,99915.04
2017-10-03T20:57:10.608Z,99916.50
2017-10-03T20:59:38.131Z,99918.34
2017-10-03T21:02:05.694Z,99914.56
2017-10-03T21:04:33.208Z,99916.22
2017-10-03T21:07:01.613Z,99911.80
2017-10-03T21:09:29.436Z,99905.77
2017-10-03T21:11:57.790Z,99915.41
2017-10-03T21:14:25.458Z,99919.41
2017-10-03T21:16:52.973Z,99918.52
2017-10-03T21:19:20.547Z,99916.05
2017-10-03T21:21:48.406Z,99911.76
2017-10-03T21:24:15.933Z,99915.58
2017-10-03T21:26:43.459Z,99923.52
2017-10-03T21:29:10.974Z,99925.51
2017-10-03T21:31:38.489Z,99933.52
2017-10-03T21:34:06.727Z,99936.16
2017-10-03T21:36:34.215Z,99934.38
2017-10-03T21:39:01.735Z,99935.57
2017-10-03T21:41:29.298Z,99934.13
2017-10-03T21:43:56.848Z,99934.02
2017-10-03T21:46:24.995Z,99943.34
2017-10-03T21:48:52.484Z,99939.74
2017-10-03T21:51:20.017Z,99940.44
2017-10-03T21:53:47.573Z,99938.75
2017-10-03T21:56:15.697Z,99931.95
2017-10-03T21:58:43.177Z,99933.52
2017-10-03T22:01:10.693Z,99933.80
2017-10-03T22:03:38.308Z,99937.29
2017-10-03T22:06:05.802Z,99931.44
2017-10-03T22:08:33.274Z,99929.47
2017-10-03T22:11:00.760Z,99931.80
2017-10-03T22:13:28.227Z,99931.39
2017-10-03T22:15:55.723Z,99930.17
2017-10-03T22:18:23.185Z,99926.45
2017-10-03T22:20:51.059Z,99931.89
2017-10-03T22:23:18.509Z,99927.02
2017-10-03T22:25:46.012Z,99931.17
2017-10-03T22:28:13.487Z,99922.95
2017-10-03T22:30:41.251Z,99921.92
2017-10-03T22:33:08.755Z,99920.04
2017-10-03T22:35:36.213Z,99921.72
2017-10-03T22:38:03.705Z,99919.63
2017-10-03T22:40:31.161Z,99914.75
2017-10-03T22:42:58.665Z,99915.31
2017-10-03T22:45:26.120Z,99921.98
2017-10-03T22:47:53.609Z,99916.63
2017-10-03T22:50:21.085Z,99915.53
2017-10-03T22:52:48.572Z,99912.42
2017-10-03T22:55:16.049Z,99909.53
2017-10-03T22:57:43.540Z,99913.63
2017-10-03T23:00:11.033Z,99908.05
2017-10-03T23:02:38.532Z,99912.94
2017-10-03T23:05:05.994Z,99905.95
2017-10-03T23:07:33.601Z,99907.02
2017-10-03T23:10:01.070Z,99904.22
2017-10-03T23:12:28.534Z,99892.34
2017-10-03T23:14:56.017Z,99878.54
2017-10-03T23:17:23.473Z,99878.25
2017-10-03T23:19:50.988Z,99888.07
2017-10-03T23:22:18.446Z,99874.42
2017-10-03T23:24:45.941Z,99874.13
2017-10-03T23:27:13.407Z,99880.72
2017-10-03T23:29:40.898Z,99876.56
2017-10-03T23:32:08.358Z,99867.25
2017-10-03T23:34:35.818Z,99866.38
2017-10-03T23:37:03.309Z,99863.44
2017-10-03T23:39:30.764Z,99874.48
2017-10-03T23:41:58.263Z,99876.25
2017-10-03T23:44:25.711Z,99875.85
2017-10-03T23:46:53.206Z,99867.17
2017-10-03T23:49:20.709Z,99871.63
2017-10-03T23:51:48.161Z,99866.76
2017-10-03T23:54:15.653Z,99858.16
2017-10-03T23:56:43.146Z,99870.47
2017-10-03T23:59:10.642Z,99885.19
